Campbellton, TX (78008)

9:44 PM CST on November 28, 2014 (GMT -0600)
Wilderness Resort Ranch | Change Station
CLOSE
Current Station
Personal Weather Station
Location: McCoy, TX
Elevation: 282 ft
Nearby Weather Stations

Elev 282 ft 28.81 °N, 98.29 °W | Updated 30 seconds ago

Clear
Clear
58.5 °F
Feels Like 58.5 °F
N
0.0
Wind Variable Wind from SE
Gusts 2.0 mph

Today
High -- | Low -- °F
--% Chance of Precip.
Yesterday
High -- | Low -- °F
Precip. -- in
7:06 AM 5:35 PM
Waxing Crescent, 47% visible
Pressure 30.14 in
Visibility 10.0 miles
Clouds Clear
Dew Point 53 °F
Humidity 82%
Rainfall 0.00 in
Snow Depth Not available.
UV 0.0 out of 12
Pollen 5.40 out of 12
Air Quality Not available.
Flu Activity Not available.
METAR KPEZ 290335Z AUTO 13004KT 10SM CLR 15/10 A3014 RMK AO2 T01470102

More Conditions Fewer Conditions

Pressure 30.14 in
Visibility 10.0 miles
Clouds Clear
Dew Point 53 °F
Humidity 82%
Rainfall 0.00 in
Snow Depth Not available.
UV 0.0 out of 12
Pollen 5.40 out of 12
Air Quality Not available.
Flu Activity Not available.
METAR KPEZ 290335Z AUTO 13004KT 10SM CLR 15/10 A3014 RMK AO2 T01470102

More Conditions Fewer Conditions

10-Day Weather Forecast

Almanac

Astronomy

Nov. 28, 2014 Rise Set
Actual Time
Civil Twilight
Nautical Twilight
Astronomical Twilight
Moon
Length of Visible Light
Length of Day
Tomorrow will be .
, % of the Moon is Illuminated

Today's Extremes

State Highs State Lows

Community

WunderPhotos

Upload Photos

1,774,389 photos uploaded!

WunderBlogs® & News

Nearby

Air Quality

  Air Quality AQ Index Pollutant
Not available.

Snow Depth

Station Depth Elevation

Earthquake Activity

City Distance Mag. Time & Date
Minimum magnitude displayed is 2.5.

Coastal Water Temperatures

Place Temperature

Nearby Weather Stations